sensor_id;sensor_type;location;lat;lon;timestamp;P1;durP1;ratioP1;P2;durP2;ratioP2
26690;SDS011;14307;51.718;8.938;2023-10-13T00:00:38;25.80;;;18.10;;
26690;SDS011;14307;51.718;8.938;2023-10-13T00:03:07;26.52;;;17.60;;
26690;SDS011;14307;51.718;8.938;2023-10-13T00:05:42;22.80;;;16.98;;
26690;SDS011;14307;51.718;8.938;2023-10-13T00:08:09;27.80;;;17.92;;
26690;SDS011;14307;51.718;8.938;2023-10-13T00:10:37;26.23;;;17.45;;
26690;SDS011;14307;51.718;8.938;2023-10-13T00:13:03;25.42;;;18.25;;
26690;SDS011;14307;51.718;8.938;2023-10-13T00:15:33;25.80;;;17.88;;
26690;SDS011;14307;51.718;8.938;2023-10-13T00:18:07;22.15;;;16.92;;
26690;SDS011;14307;51.718;8.938;2023-10-13T00:20:41;24.85;;;18.17;;
26690;SDS011;14307;51.718;8.938;2023-10-13T00:23:15;30.27;;;20.20;;
26690;SDS011;14307;51.718;8.938;2023-10-13T00:25:48;26.13;;;18.27;;
26690;SDS011;14307;51.718;8.938;2023-10-13T00:28:24;30.73;;;20.00;;
26690;SDS011;14307;51.718;8.938;2023-10-13T00:31:02;25.50;;;19.73;;
26690;SDS011;14307;51.718;8.938;2023-10-13T00:33:38;26.85;;;18.58;;
26690;SDS011;14307;51.718;8.938;2023-10-13T00:36:05;26.02;;;19.63;;
26690;SDS011;14307;51.718;8.938;2023-10-13T00:38:34;28.38;;;20.42;;
26690;SDS011;14307;51.718;8.938;2023-10-13T00:41:04;29.00;;;19.85;;
26690;SDS011;14307;51.718;8.938;2023-10-13T00:43:47;24.20;;;19.90;;
26690;SDS011;14307;51.718;8.938;2023-10-13T00:46:31;29.27;;;21.17;;
26690;SDS011;14307;51.718;8.938;2023-10-13T00:49:03;29.27;;;21.35;;
26690;SDS011;14307;51.718;8.938;2023-10-13T00:51:31;29.83;;;20.23;;
26690;SDS011;14307;51.718;8.938;2023-10-13T00:54:01;28.48;;;19.90;;
26690;SDS011;14307;51.718;8.938;2023-10-13T00:56:33;29.75;;;21.30;;
26690;SDS011;14307;51.718;8.938;2023-10-13T00:59:07;28.10;;;20.55;;
26690;SDS011;14307;51.718;8.938;2023-10-13T01:01:36;26.23;;;20.65;;
26690;SDS011;14307;51.718;8.938;2023-10-13T01:04:03;27.70;;;20.85;;
26690;SDS011;14307;51.718;8.938;2023-10-13T01:06:35;28.10;;;19.77;;
26690;SDS011;14307;51.718;8.938;2023-10-13T01:09:08;28.00;;;21.77;;
26690;SDS011;14307;51.718;8.938;2023-10-13T01:11:40;29.85;;;21.92;;
26690;SDS011;14307;51.718;8.938;2023-10-13T01:14:13;27.55;;;21.65;;
26690;SDS011;14307;51.718;8.938;2023-10-13T01:16:45;27.98;;;21.85;;
26690;SDS011;14307;51.718;8.938;2023-10-13T01:19:13;28.73;;;19.90;;
26690;SDS011;14307;51.718;8.938;2023-10-13T01:21:47;28.75;;;21.67;;
26690;SDS011;14307;51.718;8.938;2023-10-13T01:24:14;25.75;;;21.30;;
26690;SDS011;14307;51.718;8.938;2023-10-13T01:26:43;28.70;;;20.60;;
26690;SDS011;14307;51.718;8.938;2023-10-13T01:29:10;30.58;;;22.13;;
26690;SDS011;14307;51.718;8.938;2023-10-13T01:31:43;27.27;;;22.05;;
26690;SDS011;14307;51.718;8.938;2023-10-13T01:34:13;26.30;;;22.63;;
26690;SDS011;14307;51.718;8.938;2023-10-13T01:36:52;24.95;;;21.42;;
26690;SDS011;14307;51.718;8.938;2023-10-13T01:39:21;26.80;;;21.50;;
26690;SDS011;14307;51.718;8.938;2023-10-13T01:41:53;38.72;;;22.80;;
26690;SDS011;14307;51.718;8.938;2023-10-13T01:44:26;26.10;;;21.88;;
26690;SDS011;14307;51.718;8.938;2023-10-13T01:46:56;29.08;;;21.33;;
26690;SDS011;14307;51.718;8.938;2023-10-13T01:49:33;29.52;;;22.08;;
26690;SDS011;14307;51.718;8.938;2023-10-13T01:52:13;25.02;;;22.33;;
26690;SDS011;14307;51.718;8.938;2023-10-13T01:54:47;27.88;;;22.38;;
26690;SDS011;14307;51.718;8.938;2023-10-13T01:57:17;27.02;;;21.52;;
26690;SDS011;14307;51.718;8.938;2023-10-13T01:59:46;25.52;;;22.80;;
26690;SDS011;14307;51.718;8.938;2023-10-13T02:02:15;31.20;;;22.15;;
26690;SDS011;14307;51.718;8.938;2023-10-13T02:04:55;28.40;;;21.67;;
26690;SDS011;14307;51.718;8.938;2023-10-13T02:07:27;25.65;;;19.50;;
26690;SDS011;14307;51.718;8.938;2023-10-13T02:10:00;26.45;;;21.15;;
26690;SDS011;14307;51.718;8.938;2023-10-13T02:12:38;24.50;;;20.27;;
26690;SDS011;14307;51.718;8.938;2023-10-13T02:15:11;24.08;;;21.48;;
26690;SDS011;14307;51.718;8.938;2023-10-13T02:17:47;26.95;;;21.00;;
26690;SDS011;14307;51.718;8.938;2023-10-13T02:20:18;28.15;;;20.50;;
26690;SDS011;14307;51.718;8.938;2023-10-13T02:22:48;25.58;;;20.55;;
26690;SDS011;14307;51.718;8.938;2023-10-13T02:25:16;24.30;;;20.13;;
26690;SDS011;14307;51.718;8.938;2023-10-13T02:28:01;24.83;;;21.42;;
26690;SDS011;14307;51.718;8.938;2023-10-13T02:30:28;28.67;;;21.15;;
26690;SDS011;14307;51.718;8.938;2023-10-13T02:32:55;23.30;;;20.55;;
26690;SDS011;14307;51.718;8.938;2023-10-13T02:35:24;24.73;;;20.60;;
26690;SDS011;14307;51.718;8.938;2023-10-13T02:38:08;24.08;;;20.10;;
26690;SDS011;14307;51.718;8.938;2023-10-13T02:40:38;27.15;;;23.25;;
26690;SDS011;14307;51.718;8.938;2023-10-13T02:43:05;27.02;;;22.65;;
26690;SDS011;14307;51.718;8.938;2023-10-13T02:45:33;25.60;;;22.35;;
26690;SDS011;14307;51.718;8.938;2023-10-13T02:48:03;27.40;;;21.98;;
26690;SDS011;14307;51.718;8.938;2023-10-13T02:50:44;28.00;;;22.75;;
26690;SDS011;14307;51.718;8.938;2023-10-13T02:53:12;32.03;;;23.38;;
26690;SDS011;14307;51.718;8.938;2023-10-13T02:55:52;27.90;;;23.10;;
26690;SDS011;14307;51.718;8.938;2023-10-13T02:58:19;26.40;;;21.20;;
26690;SDS011;14307;51.718;8.938;2023-10-13T03:00:47;28.58;;;22.80;;
26690;SDS011;14307;51.718;8.938;2023-10-13T03:03:14;25.92;;;21.10;;
26690;SDS011;14307;51.718;8.938;2023-10-13T03:05:45;23.02;;;19.70;;
26690;SDS011;14307;51.718;8.938;2023-10-13T03:08:12;23.08;;;18.45;;
26690;SDS011;14307;51.718;8.938;2023-10-13T03:10:44;25.77;;;19.20;;
26690;SDS011;14307;51.718;8.938;2023-10-13T03:13:14;26.67;;;20.63;;
26690;SDS011;14307;51.718;8.938;2023-10-13T03:15:41;24.55;;;17.80;;
26690;SDS011;14307;51.718;8.938;2023-10-13T03:18:13;26.90;;;19.50;;
26690;SDS011;14307;51.718;8.938;2023-10-13T03:20:44;24.88;;;20.48;;
26690;SDS011;14307;51.718;8.938;2023-10-13T03:23:16;22.83;;;19.65;;
26690;SDS011;14307;51.718;8.938;2023-10-13T03:25:43;23.48;;;19.10;;
26690;SDS011;14307;51.718;8.938;2023-10-13T03:28:10;24.20;;;20.05;;
26690;SDS011;14307;51.718;8.938;2023-10-13T03:30:40;25.67;;;19.67;;
26690;SDS011;14307;51.718;8.938;2023-10-13T03:33:10;22.50;;;17.98;;
26690;SDS011;14307;51.718;8.938;2023-10-13T03:35:51;24.27;;;18.77;;
26690;SDS011;14307;51.718;8.938;2023-10-13T03:38:25;22.65;;;18.23;;
26690;SDS011;14307;51.718;8.938;2023-10-13T03:40:53;20.50;;;17.42;;
26690;SDS011;14307;51.718;8.938;2023-10-13T03:43:33;24.27;;;18.23;;
26690;SDS011;14307;51.718;8.938;2023-10-13T03:46:12;21.33;;;18.27;;
26690;SDS011;14307;51.718;8.938;2023-10-13T03:48:39;21.75;;;17.70;;
26690;SDS011;14307;51.718;8.938;2023-10-13T03:51:19;25.33;;;17.25;;
26690;SDS011;14307;51.718;8.938;2023-10-13T03:53:45;24.63;;;18.52;;
26690;SDS011;14307;51.718;8.938;2023-10-13T03:56:20;32.80;;;17.90;;
26690;SDS011;14307;51.718;8.938;2023-10-13T03:58:58;22.15;;;19.17;;
26690;SDS011;14307;51.718;8.938;2023-10-13T04:01:31;21.88;;;17.95;;
26690;SDS011;14307;51.718;8.938;2023-10-13T04:04:11;23.35;;;19.00;;
26690;SDS011;14307;51.718;8.938;2023-10-13T04:06:38;23.10;;;18.48;;
26690;SDS011;14307;51.718;8.938;2023-10-13T04:09:15;22.52;;;16.95;;
26690;SDS011;14307;51.718;8.938;2023-10-13T04:12:01;23.83;;;17.92;;
26690;SDS011;14307;51.718;8.938;2023-10-13T04:14:29;21.08;;;18.85;;
26690;SDS011;14307;51.718;8.938;2023-10-13T04:17:21;21.48;;;16.40;;
26690;SDS011;14307;51.718;8.938;2023-10-13T04:19:56;18.40;;;16.48;;
26690;SDS011;14307;51.718;8.938;2023-10-13T04:22:33;19.17;;;17.17;;
26690;SDS011;14307;51.718;8.938;2023-10-13T04:28:10;22.33;;;17.58;;
26690;SDS011;14307;51.718;8.938;2023-10-13T04:30:43;19.65;;;16.85;;
26690;SDS011;14307;51.718;8.938;2023-10-13T04:33:22;27.15;;;17.63;;
26690;SDS011;14307;51.718;8.938;2023-10-13T04:36:03;25.42;;;19.13;;
26690;SDS011;14307;51.718;8.938;2023-10-13T04:38:40;21.75;;;19.45;;
26690;SDS011;14307;51.718;8.938;2023-10-13T04:41:27;23.15;;;18.75;;
26690;SDS011;14307;51.718;8.938;2023-10-13T04:46:49;25.23;;;19.35;;
26690;SDS011;14307;51.718;8.938;2023-10-13T04:49:16;26.65;;;19.92;;
26690;SDS011;14307;51.718;8.938;2023-10-13T04:52:04;25.40;;;18.52;;
26690;SDS011;14307;51.718;8.938;2023-10-13T04:54:35;21.58;;;18.83;;
26690;SDS011;14307;51.718;8.938;2023-10-13T04:57:16;21.08;;;18.83;;
26690;SDS011;14307;51.718;8.938;2023-10-13T04:59:50;24.75;;;18.30;;
26690;SDS011;14307;51.718;8.938;2023-10-13T05:02:30;26.48;;;18.88;;
26690;SDS011;14307;51.718;8.938;2023-10-13T05:05:03;25.10;;;18.50;;
26690;SDS011;14307;51.718;8.938;2023-10-13T05:07:41;24.88;;;18.85;;
26690;SDS011;14307;51.718;8.938;2023-10-13T05:10:26;21.42;;;18.02;;
26690;SDS011;14307;51.718;8.938;2023-10-13T05:13:12;28.02;;;19.80;;
26690;SDS011;14307;51.718;8.938;2023-10-13T05:15:57;26.08;;;18.38;;
26690;SDS011;14307;51.718;8.938;2023-10-13T05:18:43;28.67;;;19.38;;
26690;SDS011;14307;51.718;8.938;2023-10-13T05:21:29;28.17;;;21.52;;
26690;SDS011;14307;51.718;8.938;2023-10-13T05:26:59;25.98;;;19.92;;
26690;SDS011;14307;51.718;8.938;2023-10-13T05:29:45;29.50;;;21.23;;
26690;SDS011;14307;51.718;8.938;2023-10-13T05:32:31;32.63;;;21.73;;
26690;SDS011;14307;51.718;8.938;2023-10-13T05:35:19;37.40;;;22.35;;
26690;SDS011;14307;51.718;8.938;2023-10-13T05:38:05;39.53;;;24.77;;
26690;SDS011;14307;51.718;8.938;2023-10-13T05:43:46;38.38;;;22.20;;
26690;SDS011;14307;51.718;8.938;2023-10-13T05:46:32;35.40;;;22.70;;
26690;SDS011;14307;51.718;8.938;2023-10-13T05:49:07;37.97;;;23.75;;
26690;SDS011;14307;51.718;8.938;2023-10-13T05:51:38;36.20;;;23.67;;
26690;SDS011;14307;51.718;8.938;2023-10-13T05:54:08;34.00;;;22.75;;
26690;SDS011;14307;51.718;8.938;2023-10-13T05:59:36;34.70;;;24.65;;
26690;SDS011;14307;51.718;8.938;2023-10-13T06:02:22;39.45;;;23.85;;
26690;SDS011;14307;51.718;8.938;2023-10-13T06:05:10;36.03;;;24.75;;
26690;SDS011;14307;51.718;8.938;2023-10-13T06:07:57;40.88;;;24.55;;
26690;SDS011;14307;51.718;8.938;2023-10-13T06:10:43;33.50;;;23.58;;
26690;SDS011;14307;51.718;8.938;2023-10-13T06:13:29;34.28;;;23.73;;
26690;SDS011;14307;51.718;8.938;2023-10-13T06:16:16;32.22;;;24.92;;
26690;SDS011;14307;51.718;8.938;2023-10-13T06:19:02;32.88;;;23.98;;
26690;SDS011;14307;51.718;8.938;2023-10-13T06:21:48;35.83;;;22.63;;
26690;SDS011;14307;51.718;8.938;2023-10-13T06:27:19;36.97;;;23.70;;
26690;SDS011;14307;51.718;8.938;2023-10-13T06:30:05;35.95;;;23.08;;
26690;SDS011;14307;51.718;8.938;2023-10-13T06:32:32;33.58;;;23.58;;
26690;SDS011;14307;51.718;8.938;2023-10-13T06:34:59;36.70;;;26.10;;
26690;SDS011;14307;51.718;8.938;2023-10-13T06:37:50;45.50;;;25.73;;
26690;SDS011;14307;51.718;8.938;2023-10-13T06:40:17;39.05;;;26.08;;
26690;SDS011;14307;51.718;8.938;2023-10-13T06:43:00;33.38;;;22.33;;
26690;SDS011;14307;51.718;8.938;2023-10-13T06:45:44;43.55;;;26.85;;
26690;SDS011;14307;51.718;8.938;2023-10-13T06:48:26;39.72;;;27.15;;
26690;SDS011;14307;51.718;8.938;2023-10-13T06:50:54;39.50;;;25.88;;
26690;SDS011;14307;51.718;8.938;2023-10-13T06:53:30;40.60;;;26.77;;
26690;SDS011;14307;51.718;8.938;2023-10-13T06:56:05;51.65;;;27.88;;
26690;SDS011;14307;51.718;8.938;2023-10-13T06:58:32;41.47;;;26.85;;
26690;SDS011;14307;51.718;8.938;2023-10-13T07:01:06;45.80;;;27.40;;
26690;SDS011;14307;51.718;8.938;2023-10-13T07:03:33;37.75;;;27.02;;
26690;SDS011;14307;51.718;8.938;2023-10-13T07:06:00;38.25;;;26.13;;
26690;SDS011;14307;51.718;8.938;2023-10-13T07:08:37;41.38;;;26.92;;
26690;SDS011;14307;51.718;8.938;2023-10-13T07:11:04;38.80;;;26.13;;
26690;SDS011;14307;51.718;8.938;2023-10-13T07:13:32;38.42;;;26.13;;
26690;SDS011;14307;51.718;8.938;2023-10-13T07:16:04;41.08;;;26.15;;
26690;SDS011;14307;51.718;8.938;2023-10-13T07:18:54;42.38;;;29.33;;
26690;SDS011;14307;51.718;8.938;2023-10-13T07:21:21;42.25;;;28.73;;
26690;SDS011;14307;51.718;8.938;2023-10-13T07:23:59;42.22;;;28.67;;
26690;SDS011;14307;51.718;8.938;2023-10-13T07:26:37;51.00;;;29.45;;
26690;SDS011;14307;51.718;8.938;2023-10-13T07:29:10;49.00;;;30.63;;
26690;SDS011;14307;51.718;8.938;2023-10-13T07:31:37;42.60;;;27.40;;
26690;SDS011;14307;51.718;8.938;2023-10-13T07:34:06;38.60;;;25.67;;
26690;SDS011;14307;51.718;8.938;2023-10-13T07:36:39;37.05;;;23.70;;
26690;SDS011;14307;51.718;8.938;2023-10-13T07:39:09;38.03;;;26.35;;
26690;SDS011;14307;51.718;8.938;2023-10-13T07:41:49;29.77;;;23.73;;
26690;SDS011;14307;51.718;8.938;2023-10-13T07:44:30;26.88;;;19.77;;
26690;SDS011;14307;51.718;8.938;2023-10-13T07:47:01;27.92;;;19.33;;
26690;SDS011;14307;51.718;8.938;2023-10-13T07:49:30;20.20;;;15.95;;
26690;SDS011;14307;51.718;8.938;2023-10-13T07:51:59;28.85;;;18.35;;
26690;SDS011;14307;51.718;8.938;2023-10-13T07:54:33;20.13;;;13.90;;
26690;SDS011;14307;51.718;8.938;2023-10-13T07:57:00;20.08;;;14.18;;
26690;SDS011;14307;51.718;8.938;2023-10-13T07:59:36;18.92;;;14.38;;
26690;SDS011;14307;51.718;8.938;2023-10-13T08:02:14;19.30;;;13.82;;
26690;SDS011;14307;51.718;8.938;2023-10-13T08:05:00;17.55;;;12.43;;
26690;SDS011;14307;51.718;8.938;2023-10-13T08:07:27;13.90;;;9.85;;
26690;SDS011;14307;51.718;8.938;2023-10-13T08:09:54;16.35;;;9.60;;
26690;SDS011;14307;51.718;8.938;2023-10-13T08:12:24;14.48;;;8.43;;
26690;SDS011;14307;51.718;8.938;2023-10-13T08:14:51;12.32;;;9.10;;
26690;SDS011;14307;51.718;8.938;2023-10-13T08:17:35;13.23;;;8.00;;
26690;SDS011;14307;51.718;8.938;2023-10-13T08:20:02;11.48;;;7.18;;
26690;SDS011;14307;51.718;8.938;2023-10-13T08:22:38;11.60;;;6.57;;
26690;SDS011;14307;51.718;8.938;2023-10-13T08:25:13;9.85;;;6.60;;
26690;SDS011;14307;51.718;8.938;2023-10-13T08:28:12;10.45;;;6.47;;
26690;SDS011;14307;51.718;8.938;2023-10-13T08:31:16;11.63;;;6.28;;
26690;SDS011;14307;51.718;8.938;2023-10-13T08:33:49;7.40;;;5.78;;
26690;SDS011;14307;51.718;8.938;2023-10-13T08:36:16;7.93;;;6.70;;
26690;SDS011;14307;51.718;8.938;2023-10-13T08:38:56;8.88;;;7.82;;
26690;SDS011;14307;51.718;8.938;2023-10-13T08:41:23;11.73;;;7.38;;
26690;SDS011;14307;51.718;8.938;2023-10-13T08:43:50;11.90;;;7.32;;
26690;SDS011;14307;51.718;8.938;2023-10-13T08:46:19;9.93;;;7.80;;
26690;SDS011;14307;51.718;8.938;2023-10-13T08:48:57;11.73;;;8.43;;
26690;SDS011;14307;51.718;8.938;2023-10-13T08:51:34;10.77;;;8.80;;
26690;SDS011;14307;51.718;8.938;2023-10-13T08:54:12;11.07;;;9.05;;
26690;SDS011;14307;51.718;8.938;2023-10-13T08:57:01;11.95;;;9.38;;
26690;SDS011;14307;51.718;8.938;2023-10-13T08:59:51;14.40;;;10.00;;
26690;SDS011;14307;51.718;8.938;2023-10-13T09:02:22;13.88;;;10.93;;
26690;SDS011;14307;51.718;8.938;2023-10-13T09:05:09;18.67;;;11.32;;
26690;SDS011;14307;51.718;8.938;2023-10-13T09:07:56;18.85;;;11.65;;
26690;SDS011;14307;51.718;8.938;2023-10-13T09:10:34;19.08;;;11.98;;
26690;SDS011;14307;51.718;8.938;2023-10-13T09:13:11;15.57;;;12.75;;
26690;SDS011;14307;51.718;8.938;2023-10-13T09:15:46;21.00;;;12.40;;
26690;SDS011;14307;51.718;8.938;2023-10-13T09:18:26;16.33;;;12.25;;
26690;SDS011;14307;51.718;8.938;2023-10-13T09:21:12;15.98;;;13.52;;
26690;SDS011;14307;51.718;8.938;2023-10-13T09:24:10;23.70;;;14.85;;
26690;SDS011;14307;51.718;8.938;2023-10-13T09:26:48;20.23;;;15.98;;
26690;SDS011;14307;51.718;8.938;2023-10-13T09:29:20;20.88;;;15.65;;
26690;SDS011;14307;51.718;8.938;2023-10-13T09:31:57;18.60;;;16.83;;
26690;SDS011;14307;51.718;8.938;2023-10-13T09:34:29;21.90;;;17.77;;
26690;SDS011;14307;51.718;8.938;2023-10-13T09:37:00;27.83;;;19.00;;
26690;SDS011;14307;51.718;8.938;2023-10-13T09:39:29;21.08;;;18.77;;
26690;SDS011;14307;51.718;8.938;2023-10-13T09:42:00;25.15;;;19.02;;
26690;SDS011;14307;51.718;8.938;2023-10-13T09:44:29;22.30;;;18.40;;
26690;SDS011;14307;51.718;8.938;2023-10-13T09:47:01;23.63;;;20.05;;
26690;SDS011;14307;51.718;8.938;2023-10-13T09:49:39;24.73;;;21.70;;
26690;SDS011;14307;51.718;8.938;2023-10-13T09:52:13;26.58;;;21.17;;
26690;SDS011;14307;51.718;8.938;2023-10-13T09:54:51;28.17;;;25.48;;
26690;SDS011;14307;51.718;8.938;2023-10-13T09:57:31;25.33;;;22.63;;
26690;SDS011;14307;51.718;8.938;2023-10-13T10:00:02;30.40;;;23.63;;
26690;SDS011;14307;51.718;8.938;2023-10-13T10:03:00;28.60;;;23.60;;
26690;SDS011;14307;51.718;8.938;2023-10-13T10:05:41;26.98;;;24.13;;
26690;SDS011;14307;51.718;8.938;2023-10-13T10:08:25;24.73;;;22.42;;
26690;SDS011;14307;51.718;8.938;2023-10-13T10:19:50;26.42;;;24.08;;
26690;SDS011;14307;51.718;8.938;2023-10-13T10:22:28;25.00;;;22.63;;
26690;SDS011;14307;51.718;8.938;2023-10-13T10:25:03;25.60;;;22.88;;
26690;SDS011;14307;51.718;8.938;2023-10-13T10:27:40;26.25;;;23.55;;
26690;SDS011;14307;51.718;8.938;2023-10-13T10:30:07;31.38;;;24.63;;
26690;SDS011;14307;51.718;8.938;2023-10-13T10:32:39;26.65;;;23.90;;
26690;SDS011;14307;51.718;8.938;2023-10-13T10:35:08;25.05;;;22.83;;
26690;SDS011;14307;51.718;8.938;2023-10-13T10:37:47;26.75;;;24.50;;
26690;SDS011;14307;51.718;8.938;2023-10-13T10:40:15;25.80;;;23.30;;
26690;SDS011;14307;51.718;8.938;2023-10-13T10:43:13;29.27;;;26.65;;
26690;SDS011;14307;51.718;8.938;2023-10-13T10:45:58;27.92;;;25.67;;
26690;SDS011;14307;51.718;8.938;2023-10-13T10:48:28;30.60;;;25.42;;
26690;SDS011;14307;51.718;8.938;2023-10-13T10:51:01;28.13;;;25.55;;
26690;SDS011;14307;51.718;8.938;2023-10-13T10:53:41;28.10;;;25.70;;
26690;SDS011;14307;51.718;8.938;2023-10-13T10:56:11;28.55;;;25.52;;
26690;SDS011;14307;51.718;8.938;2023-10-13T10:58:58;30.98;;;25.80;;
26690;SDS011;14307;51.718;8.938;2023-10-13T11:01:28;30.08;;;26.67;;
26690;SDS011;14307;51.718;8.938;2023-10-13T11:04:13;29.55;;;26.60;;
26690;SDS011;14307;51.718;8.938;2023-10-13T11:06:46;29.85;;;26.83;;
26690;SDS011;14307;51.718;8.938;2023-10-13T11:09:14;29.88;;;26.65;;
26690;SDS011;14307;51.718;8.938;2023-10-13T11:11:53;29.15;;;26.77;;
26690;SDS011;14307;51.718;8.938;2023-10-13T11:14:24;29.15;;;25.77;;
26690;SDS011;14307;51.718;8.938;2023-10-13T11:16:55;30.30;;;27.10;;
26690;SDS011;14307;51.718;8.938;2023-10-13T11:19:36;28.67;;;25.85;;
26690;SDS011;14307;51.718;8.938;2023-10-13T11:22:15;29.25;;;26.58;;
26690;SDS011;14307;51.718;8.938;2023-10-13T11:25:02;29.90;;;25.23;;
26690;SDS011;14307;51.718;8.938;2023-10-13T11:27:38;28.67;;;25.58;;
26690;SDS011;14307;51.718;8.938;2023-10-13T11:30:27;28.40;;;25.50;;
26690;SDS011;14307;51.718;8.938;2023-10-13T11:33:03;26.85;;;24.60;;
26690;SDS011;14307;51.718;8.938;2023-10-13T11:35:35;27.73;;;24.88;;
26690;SDS011;14307;51.718;8.938;2023-10-13T11:38:15;28.00;;;25.27;;
26690;SDS011;14307;51.718;8.938;2023-10-13T11:43:34;29.10;;;26.35;;
26690;SDS011;14307;51.718;8.938;2023-10-13T11:46:09;27.83;;;24.95;;
26690;SDS011;14307;51.718;8.938;2023-10-13T11:48:37;34.95;;;25.38;;
26690;SDS011;14307;51.718;8.938;2023-10-13T11:51:22;27.90;;;25.02;;
26690;SDS011;14307;51.718;8.938;2023-10-13T11:54:06;28.55;;;25.90;;
26690;SDS011;14307;51.718;8.938;2023-10-13T11:56:35;28.27;;;25.27;;
26690;SDS011;14307;51.718;8.938;2023-10-13T11:59:05;28.23;;;25.52;;
26690;SDS011;14307;51.718;8.938;2023-10-13T12:01:32;39.15;;;25.13;;
26690;SDS011;14307;51.718;8.938;2023-10-13T12:04:17;29.17;;;25.27;;
26690;SDS011;14307;51.718;8.938;2023-10-13T12:07:10;27.75;;;25.40;;
26690;SDS011;14307;51.718;8.938;2023-10-13T12:09:55;28.50;;;25.85;;
26690;SDS011;14307;51.718;8.938;2023-10-13T12:12:22;32.72;;;26.73;;
26690;SDS011;14307;51.718;8.938;2023-10-13T12:14:49;28.80;;;25.85;;
26690;SDS011;14307;51.718;8.938;2023-10-13T12:17:21;32.40;;;27.27;;
26690;SDS011;14307;51.718;8.938;2023-10-13T12:22:37;33.70;;;25.92;;
26690;SDS011;14307;51.718;8.938;2023-10-13T12:25:17;33.30;;;26.48;;
26690;SDS011;14307;51.718;8.938;2023-10-13T12:27:54;31.60;;;26.55;;
26690;SDS011;14307;51.718;8.938;2023-10-13T12:30:32;30.25;;;26.52;;
26690;SDS011;14307;51.718;8.938;2023-10-13T12:33:15;31.00;;;26.70;;
26690;SDS011;14307;51.718;8.938;2023-10-13T12:35:56;27.65;;;24.80;;
26690;SDS011;14307;51.718;8.938;2023-10-13T12:38:34;28.08;;;25.30;;
26690;SDS011;14307;51.718;8.938;2023-10-13T12:41:14;30.08;;;25.13;;
26690;SDS011;14307;51.718;8.938;2023-10-13T12:44:06;28.88;;;25.90;;
26690;SDS011;14307;51.718;8.938;2023-10-13T12:46:52;32.28;;;26.15;;
26690;SDS011;14307;51.718;8.938;2023-10-13T12:49:38;29.83;;;25.02;;
26690;SDS011;14307;51.718;8.938;2023-10-13T12:52:09;29.67;;;26.38;;
26690;SDS011;14307;51.718;8.938;2023-10-13T12:54:42;30.35;;;26.00;;
26690;SDS011;14307;51.718;8.938;2023-10-13T12:57:30;28.15;;;25.15;;
26690;SDS011;14307;51.718;8.938;2023-10-13T12:59:58;32.03;;;25.42;;
26690;SDS011;14307;51.718;8.938;2023-10-13T13:02:25;28.77;;;25.77;;
26690;SDS011;14307;51.718;8.938;2023-10-13T13:04:53;27.88;;;25.42;;
26690;SDS011;14307;51.718;8.938;2023-10-13T13:07:28;28.77;;;25.95;;
26690;SDS011;14307;51.718;8.938;2023-10-13T13:09:56;29.85;;;26.88;;
26690;SDS011;14307;51.718;8.938;2023-10-13T13:12:29;33.40;;;27.17;;
26690;SDS011;14307;51.718;8.938;2023-10-13T13:14:56;29.30;;;26.33;;
26690;SDS011;14307;51.718;8.938;2023-10-13T13:17:22;30.83;;;27.58;;
26690;SDS011;14307;51.718;8.938;2023-10-13T13:19:49;29.25;;;26.15;;
26690;SDS011;14307;51.718;8.938;2023-10-13T13:22:16;28.45;;;25.88;;
26690;SDS011;14307;51.718;8.938;2023-10-13T13:24:46;31.35;;;26.27;;
26690;SDS011;14307;51.718;8.938;2023-10-13T13:27:52;31.23;;;27.65;;
26690;SDS011;14307;51.718;8.938;2023-10-13T13:30:19;28.90;;;25.30;;
26690;SDS011;14307;51.718;8.938;2023-10-13T13:32:46;28.77;;;26.17;;
26690;SDS011;14307;51.718;8.938;2023-10-13T13:35:14;28.83;;;26.17;;
26690;SDS011;14307;51.718;8.938;2023-10-13T13:37:43;27.77;;;24.95;;
26690;SDS011;14307;51.718;8.938;2023-10-13T13:40:11;28.25;;;25.58;;
26690;SDS011;14307;51.718;8.938;2023-10-13T13:42:41;28.08;;;24.75;;
26690;SDS011;14307;51.718;8.938;2023-10-13T13:45:16;28.77;;;25.23;;
26690;SDS011;14307;51.718;8.938;2023-10-13T13:47:58;27.75;;;24.95;;
26690;SDS011;14307;51.718;8.938;2023-10-13T13:50:26;32.17;;;25.83;;
26690;SDS011;14307;51.718;8.938;2023-10-13T13:52:56;30.13;;;25.77;;
26690;SDS011;14307;51.718;8.938;2023-10-13T13:55:24;27.23;;;24.63;;
26690;SDS011;14307;51.718;8.938;2023-10-13T13:57:55;26.52;;;23.75;;
26690;SDS011;14307;51.718;8.938;2023-10-13T14:00:26;26.35;;;23.23;;
26690;SDS011;14307;51.718;8.938;2023-10-13T14:03:13;28.50;;;23.90;;
26690;SDS011;14307;51.718;8.938;2023-10-13T14:05:58;26.83;;;24.48;;
26690;SDS011;14307;51.718;8.938;2023-10-13T14:08:26;30.55;;;24.73;;
26690;SDS011;14307;51.718;8.938;2023-10-13T14:10:53;29.15;;;24.90;;
26690;SDS011;14307;51.718;8.938;2023-10-13T14:13:38;27.83;;;24.52;;
26690;SDS011;14307;51.718;8.938;2023-10-13T14:16:16;31.60;;;26.55;;
26690;SDS011;14307;51.718;8.938;2023-10-13T14:18:48;29.13;;;23.35;;
26690;SDS011;14307;51.718;8.938;2023-10-13T14:21:19;27.08;;;23.90;;
26690;SDS011;14307;51.718;8.938;2023-10-13T14:23:50;28.42;;;25.02;;
26690;SDS011;14307;51.718;8.938;2023-10-13T14:26:20;28.42;;;24.92;;
26690;SDS011;14307;51.718;8.938;2023-10-13T14:28:48;27.15;;;24.42;;
26690;SDS011;14307;51.718;8.938;2023-10-13T14:31:35;29.42;;;25.60;;
26690;SDS011;14307;51.718;8.938;2023-10-13T14:34:05;26.58;;;23.98;;
26690;SDS011;14307;51.718;8.938;2023-10-13T14:36:35;29.20;;;23.88;;
26690;SDS011;14307;51.718;8.938;2023-10-13T14:39:02;29.10;;;24.42;;
26690;SDS011;14307;51.718;8.938;2023-10-13T14:41:35;26.40;;;23.90;;
26690;SDS011;14307;51.718;8.938;2023-10-13T14:44:04;35.35;;;24.25;;
26690;SDS011;14307;51.718;8.938;2023-10-13T14:46:33;33.47;;;25.17;;
26690;SDS011;14307;51.718;8.938;2023-10-13T14:49:07;27.98;;;23.95;;
26690;SDS011;14307;51.718;8.938;2023-10-13T14:51:34;31.52;;;24.48;;
26690;SDS011;14307;51.718;8.938;2023-10-13T14:54:05;29.23;;;24.48;;
26690;SDS011;14307;51.718;8.938;2023-10-13T14:56:32;28.00;;;24.75;;
26690;SDS011;14307;51.718;8.938;2023-10-13T14:58:59;27.73;;;24.83;;
26690;SDS011;14307;51.718;8.938;2023-10-13T15:01:26;27.67;;;25.05;;
26690;SDS011;14307;51.718;8.938;2023-10-13T15:03:53;28.95;;;25.33;;
26690;SDS011;14307;51.718;8.938;2023-10-13T15:06:24;27.20;;;24.60;;
26690;SDS011;14307;51.718;8.938;2023-10-13T15:08:56;27.80;;;24.58;;
26690;SDS011;14307;51.718;8.938;2023-10-13T15:11:26;28.92;;;24.80;;
26690;SDS011;14307;51.718;8.938;2023-10-13T15:14:14;27.10;;;24.70;;
26690;SDS011;14307;51.718;8.938;2023-10-13T15:16:41;28.30;;;25.50;;
26690;SDS011;14307;51.718;8.938;2023-10-13T15:19:10;33.08;;;25.77;;
26690;SDS011;14307;51.718;8.938;2023-10-13T15:21:38;32.17;;;26.15;;
26690;SDS011;14307;51.718;8.938;2023-10-13T15:24:07;29.52;;;25.42;;
26690;SDS011;14307;51.718;8.938;2023-10-13T15:26:44;28.30;;;25.58;;
26690;SDS011;14307;51.718;8.938;2023-10-13T15:29:14;29.63;;;26.67;;
26690;SDS011;14307;51.718;8.938;2023-10-13T15:31:45;34.25;;;27.35;;
26690;SDS011;14307;51.718;8.938;2023-10-13T15:34:28;34.50;;;25.98;;
26690;SDS011;14307;51.718;8.938;2023-10-13T15:36:56;27.65;;;24.67;;
26690;SDS011;14307;51.718;8.938;2023-10-13T15:39:24;35.05;;;25.70;;